Huvudsida
METAR-TAF:

METAR-TAF

Flygplatser :

Phu Quoc flygplats

Phu Quoc, Vietnam

latitud: 10-10-18N, longitud: 103-59-28E, höjd: 11 m

Aktuellt väderrapport

Denna rapport gjordes för 20 minuter sedan, klockan 15:00 UTC
Vind 7 kt från väst
Temperatur 28°C
Fuktighet 79%
Tryck 1010 hPa
Sikt 10 km eller mer
Få moln på en höjd av 1700 ft

METAR: VVPQ 261500Z 28007KT 9999 FEW017 28/24 Q1010 NOSIG

Tid: 22:20 (15:20 UTC)

Väderprognos

Denna rapport gjordes för 4 timmar och 20 minuter sedan, klockan 11:00 UTC
Prognos gäller från 26 kl. 12 UTC till 27 kl. 12 UTC
Vind 7 kt från väst/nordväst
Sikt 10 km eller mer
Spridda moln på en höjd av 1500 ft

TAF: VVPQ 261100Z 2612/2712 30007KT 9999 SCT015

Aktuella väderrapporter och prognoser från 4000 flygplatser (METAR- och TAF-rapporter).

De tillgängliga stationerna syns som gula och röda prickar på kartan.

För musen över prickarna för att se namnen på stationerna.

Klicka sedan för att få väderrapporter och prognoser.

För att ändra kartan: Klicka på de gröna knapparna med ett svart kors på för att zooma in; den gröna knappen med ett streck på för att zooma ut; eller på de gröna pilarna för angränsande kartor.


METAR-TAF: